createdAt,value
2022-07-26T00:02:20.805Z,18.83
2022-07-26T00:04:47.436Z,18.82
2022-07-26T00:07:14.182Z,18.80
2022-07-26T00:09:44.983Z,18.83
2022-07-26T00:12:14.428Z,18.85
2022-07-26T00:14:41.025Z,18.85
2022-07-26T00:17:07.691Z,18.86
2022-07-26T00:19:34.182Z,18.85
2022-07-26T00:22:19.402Z,18.85
2022-07-26T00:24:45.894Z,18.84
2022-07-26T00:27:12.374Z,18.82
2022-07-26T00:29:38.937Z,18.83
2022-07-26T00:32:05.966Z,18.82
2022-07-26T00:34:32.470Z,18.79
2022-07-26T00:36:58.932Z,18.76
2022-07-26T00:39:25.486Z,18.72
2022-07-26T00:41:52.005Z,18.72
2022-07-26T00:44:18.480Z,18.75
2022-07-26T00:46:45.000Z,18.82
2022-07-26T00:49:12.614Z,18.86
2022-07-26T00:51:39.572Z,18.89
2022-07-26T00:54:06.920Z,18.89
2022-07-26T00:56:35.492Z,18.83
2022-07-26T00:59:02.473Z,18.84
2022-07-26T01:01:29.181Z,18.87
2022-07-26T01:03:55.876Z,18.87
2022-07-26T01:06:27.151Z,18.79
2022-07-26T01:08:54.619Z,18.71
2022-07-26T01:11:21.312Z,18.67
2022-07-26T01:13:49.682Z,18.63
2022-07-26T01:16:17.051Z,18.58
2022-07-26T01:18:44.149Z,18.54
2022-07-26T01:21:13.873Z,18.50
2022-07-26T01:23:41.332Z,18.42
2022-07-26T01:26:08.620Z,18.39
2022-07-26T01:28:39.518Z,18.35
2022-07-26T01:31:07.414Z,18.32
2022-07-26T01:33:34.755Z,18.25
2022-07-26T01:36:01.734Z,18.20
2022-07-26T01:38:28.874Z,18.19
2022-07-26T01:40:55.515Z,18.18
2022-07-26T01:43:22.220Z,18.15
2022-07-26T01:45:48.969Z,18.15
2022-07-26T01:48:15.638Z,18.11
2022-07-26T01:50:42.494Z,18.15
2022-07-26T01:53:09.476Z,18.19
2022-07-26T01:55:36.603Z,18.18
2022-07-26T01:58:05.212Z,18.18
2022-07-26T02:00:32.120Z,18.17
2022-07-26T02:02:58.820Z,18.19
2022-07-26T02:05:25.424Z,18.20
2022-07-26T02:07:52.095Z,18.20
2022-07-26T02:10:18.696Z,18.20
2022-07-26T02:12:45.428Z,18.16
2022-07-26T02:15:13.771Z,18.16
2022-07-26T02:17:40.678Z,18.16
2022-07-26T02:20:08.637Z,18.16
2022-07-26T02:22:35.709Z,18.17
2022-07-26T02:25:05.296Z,18.17
2022-07-26T02:27:32.691Z,18.17
2022-07-26T02:29:59.225Z,18.17
2022-07-26T02:32:26.026Z,18.20
2022-07-26T02:34:52.579Z,18.23
2022-07-26T02:37:19.027Z,18.28
2022-07-26T02:39:45.523Z,18.27
2022-07-26T02:42:11.982Z,18.28
2022-07-26T02:44:38.472Z,18.27
2022-07-26T02:47:05.031Z,18.28
2022-07-26T02:49:31.565Z,18.33
2022-07-26T02:51:58.092Z,18.33
2022-07-26T02:54:24.608Z,18.31
2022-07-26T02:56:51.078Z,18.29
2022-07-26T02:59:17.599Z,18.26
2022-07-26T03:01:44.180Z,18.22
2022-07-26T03:04:11.235Z,18.15
2022-07-26T03:06:38.010Z,18.14
2022-07-26T03:09:05.383Z,18.08
2022-07-26T03:11:31.857Z,18.06
2022-07-26T03:13:58.334Z,18.04
2022-07-26T03:16:29.235Z,18.02
2022-07-26T03:18:56.764Z,17.99
2022-07-26T03:21:23.826Z,18.02
2022-07-26T03:23:50.351Z,18.07
2022-07-26T03:26:17.149Z,18.09
2022-07-26T03:28:44.640Z,18.11
2022-07-26T03:31:12.979Z,18.10
2022-07-26T03:33:40.732Z,18.14
2022-07-26T03:36:11.426Z,18.15
2022-07-26T03:38:38.327Z,18.11
2022-07-26T03:41:05.497Z,18.11
2022-07-26T03:43:32.023Z,18.14
2022-07-26T03:46:03.264Z,18.07
2022-07-26T03:48:31.399Z,18.06
2022-07-26T03:50:57.958Z,18.07
2022-07-26T03:53:24.446Z,18.03
2022-07-26T03:56:10.078Z,17.98
2022-07-26T03:58:36.655Z,17.96
2022-07-26T04:01:04.144Z,17.94
2022-07-26T04:03:30.741Z,17.97
2022-07-26T04:05:57.590Z,17.97
2022-07-26T04:08:24.129Z,17.95
2022-07-26T04:10:53.658Z,17.88
2022-07-26T04:13:20.526Z,17.78
2022-07-26T04:15:47.505Z,17.72
2022-07-26T04:18:16.846Z,17.82
2022-07-26T04:20:43.383Z,17.81
2022-07-26T04:23:12.132Z,17.75
2022-07-26T04:25:40.752Z,17.74
2022-07-26T04:28:07.718Z,17.82
2022-07-26T04:30:34.241Z,17.82
2022-07-26T04:33:00.717Z,17.67
2022-07-26T04:35:27.196Z,17.53
2022-07-26T04:37:53.690Z,17.56
2022-07-26T04:40:21.703Z,17.46
2022-07-26T04:42:51.487Z,17.45
2022-07-26T04:45:18.485Z,17.45
2022-07-26T04:47:49.154Z,17.55
2022-07-26T04:50:16.695Z,17.64
2022-07-26T04:52:43.337Z,17.70
2022-07-26T04:55:10.721Z,17.72
2022-07-26T04:57:37.589Z,17.78
2022-07-26T05:00:21.317Z,17.77
2022-07-26T05:02:52.305Z,17.82
2022-07-26T05:05:19.064Z,17.82
2022-07-26T05:07:47.705Z,17.85
2022-07-26T05:10:15.471Z,17.76
2022-07-26T05:12:42.011Z,17.76
2022-07-26T05:15:13.807Z,17.75
2022-07-26T05:17:43.019Z,17.77
2022-07-26T05:20:12.570Z,17.77
2022-07-26T05:22:39.621Z,17.76
2022-07-26T05:25:07.508Z,17.75
2022-07-26T05:27:34.810Z,17.75
2022-07-26T05:30:01.285Z,17.73
2022-07-26T05:32:30.897Z,17.73
2022-07-26T05:34:57.378Z,17.82
2022-07-26T05:37:23.947Z,17.93
2022-07-26T05:39:50.416Z,18.03
2022-07-26T05:42:16.914Z,18.09
2022-07-26T05:44:43.386Z,18.14
2022-07-26T05:47:11.047Z,18.20
2022-07-26T05:49:39.732Z,18.23
2022-07-26T05:52:08.039Z,18.21
2022-07-26T05:54:34.916Z,18.28
2022-07-26T05:57:01.622Z,18.33
2022-07-26T05:59:28.463Z,18.37
2022-07-26T06:01:56.654Z,18.42
2022-07-26T06:04:25.001Z,18.43
2022-07-26T06:06:55.037Z,18.40
2022-07-26T06:09:24.771Z,18.39
2022-07-26T06:11:51.381Z,18.33
2022-07-26T06:14:18.221Z,18.22
2022-07-26T06:16:45.721Z,18.11
2022-07-26T06:19:12.411Z,18.07
2022-07-26T06:21:38.880Z,18.09
2022-07-26T06:24:06.114Z,17.94
2022-07-26T06:26:32.906Z,17.75
2022-07-26T06:28:59.530Z,17.55
2022-07-26T06:31:26.110Z,17.47
2022-07-26T06:33:52.679Z,17.43
2022-07-26T06:36:19.166Z,17.32
2022-07-26T06:38:45.607Z,17.21
2022-07-26T06:41:15.378Z,17.08
2022-07-26T06:43:41.951Z,16.99
2022-07-26T06:46:08.484Z,16.88
2022-07-26T06:48:35.727Z,16.89
2022-07-26T06:51:03.417Z,16.85
2022-07-26T06:53:29.951Z,16.85
2022-07-26T06:55:56.393Z,16.91
2022-07-26T06:58:22.880Z,16.93
2022-07-26T07:00:49.468Z,16.99
2022-07-26T07:03:16.036Z,17.03
2022-07-26T07:05:45.389Z,17.05
2022-07-26T07:08:15.991Z,17.06
2022-07-26T07:10:44.100Z,17.14
2022-07-26T07:13:10.584Z,17.09
2022-07-26T07:15:37.039Z,17.01
2022-07-26T07:18:03.574Z,17.05
2022-07-26T07:20:30.141Z,17.04
2022-07-26T07:22:56.727Z,17.06
2022-07-26T07:25:30.780Z,16.99
2022-07-26T07:27:57.986Z,17.02
2022-07-26T07:30:24.497Z,17.11
2022-07-26T07:32:55.637Z,17.18
2022-07-26T07:35:23.657Z,17.22
2022-07-26T07:37:52.978Z,17.27
2022-07-26T07:40:20.932Z,17.37
2022-07-26T07:42:47.430Z,17.77
2022-07-26T07:45:14.049Z,18.18
2022-07-26T07:47:40.678Z,18.31
2022-07-26T07:50:07.801Z,18.13
2022-07-26T07:52:34.365Z,18.18
2022-07-26T07:55:36.930Z,18.18
2022-07-26T07:57:47.443Z,18.04
2022-07-26T08:00:16.687Z,18.05
2022-07-26T08:02:44.689Z,18.26
2022-07-26T08:05:14.207Z,18.21
2022-07-26T08:07:41.750Z,17.92
2022-07-26T08:10:08.855Z,17.82
2022-07-26T08:12:35.661Z,17.86
2022-07-26T08:15:07.468Z,17.80
2022-07-26T08:17:41.686Z,17.72
2022-07-26T08:20:08.973Z,17.75
2022-07-26T08:22:41.716Z,17.75
2022-07-26T08:25:09.057Z,17.72
2022-07-26T08:27:40.900Z,17.81
2022-07-26T08:30:08.402Z,17.87
2022-07-26T08:32:35.810Z,17.87
2022-07-26T08:35:17.597Z,18.02
2022-07-26T08:37:45.995Z,18.16
2022-07-26T08:40:12.788Z,18.20
2022-07-26T08:42:39.358Z,18.29
2022-07-26T08:45:06.960Z,18.37
2022-07-26T08:47:39.827Z,18.39
2022-07-26T08:50:12.857Z,18.30
2022-07-26T08:52:43.467Z,18.29
2022-07-26T08:55:11.175Z,18.36
2022-07-26T08:57:37.766Z,18.41
2022-07-26T09:00:34.772Z,18.48
2022-07-26T09:03:02.705Z,18.52
2022-07-26T09:05:33.577Z,18.38
2022-07-26T09:08:01.504Z,18.56
2022-07-26T09:10:28.327Z,18.38
2022-07-26T09:12:56.921Z,18.23
2022-07-26T09:15:28.051Z,18.15
2022-07-26T09:17:57.100Z,18.03
2022-07-26T09:20:27.904Z,17.91
2022-07-26T09:23:01.175Z,17.86
2022-07-26T09:25:29.746Z,17.92
2022-07-26T09:27:56.640Z,18.08
2022-07-26T09:30:23.134Z,18.18
2022-07-26T09:33:04.496Z,18.29
2022-07-26T09:35:50.826Z,18.15
2022-07-26T09:38:17.996Z,18.07
2022-07-26T09:40:49.621Z,18.34
2022-07-26T09:43:19.725Z,18.82
2022-07-26T09:46:03.675Z,19.34
2022-07-26T09:48:52.133Z,19.55
2022-07-26T09:51:35.482Z,19.61
2022-07-26T09:54:02.480Z,19.55
2022-07-26T09:56:45.193Z,19.06
2022-07-26T09:59:13.625Z,18.73
2022-07-26T10:01:40.230Z,18.37
2022-07-26T10:04:07.906Z,18.24
2022-07-26T10:06:35.140Z,18.23
2022-07-26T10:09:02.453Z,18.31
2022-07-26T10:11:59.672Z,18.41
2022-07-26T10:14:41.364Z,18.73
2022-07-26T10:17:31.725Z,18.82
2022-07-26T10:20:10.606Z,18.63
2022-07-26T10:22:46.832Z,18.65
2022-07-26T10:25:19.323Z,18.61
2022-07-26T10:27:58.244Z,18.56
2022-07-26T10:30:33.938Z,18.39
2022-07-26T10:33:13.501Z,18.36
2022-07-26T10:35:44.330Z,18.51
2022-07-26T10:38:25.833Z,18.66
2022-07-26T10:41:00.601Z,18.98
2022-07-26T10:43:43.709Z,18.99
2022-07-26T10:46:13.271Z,18.90
2022-07-26T10:49:18.458Z,18.97
2022-07-26T10:51:45.034Z,18.92
2022-07-26T10:54:13.563Z,19.12
2022-07-26T10:56:40.638Z,19.24
2022-07-26T10:59:07.480Z,19.38
2022-07-26T11:01:42.522Z,19.43
2022-07-26T11:04:22.758Z,19.43
2022-07-26T11:06:49.547Z,19.57
2022-07-26T11:09:18.454Z,19.61
2022-07-26T11:11:47.610Z,19.68
2022-07-26T11:14:17.127Z,19.80
2022-07-26T11:16:50.137Z,19.70
2022-07-26T11:19:19.204Z,19.58
2022-07-26T11:21:47.938Z,19.55
2022-07-26T11:24:14.915Z,19.50
2022-07-26T11:26:43.513Z,19.36
2022-07-26T11:29:17.089Z,19.18
2022-07-26T11:31:50.604Z,19.41
2022-07-26T11:34:28.268Z,19.47
2022-07-26T11:36:57.352Z,19.45
2022-07-26T11:39:29.810Z,19.51
2022-07-26T11:41:59.118Z,19.56
2022-07-26T11:44:27.292Z,19.69
2022-07-26T11:46:54.057Z,19.83
2022-07-26T11:52:25.303Z,19.82
2022-07-26T11:54:54.115Z,19.82
2022-07-26T11:57:20.717Z,19.83
2022-07-26T11:59:48.492Z,19.77
2022-07-26T12:02:15.631Z,19.87
2022-07-26T12:04:43.676Z,19.94
2022-07-26T12:07:20.152Z,20.08
2022-07-26T12:09:46.613Z,20.14
2022-07-26T12:12:27.793Z,20.11
2022-07-26T12:15:02.471Z,20.23
2022-07-26T12:17:34.641Z,20.03
2022-07-26T12:20:17.520Z,19.67
2022-07-26T12:23:06.000Z,19.46
2022-07-26T12:25:32.715Z,19.36
2022-07-26T12:27:59.351Z,19.24
2022-07-26T12:30:30.322Z,19.32
2022-07-26T12:33:02.338Z,19.53
2022-07-26T12:35:33.437Z,19.55
2022-07-26T12:38:00.262Z,19.60
2022-07-26T12:40:29.649Z,19.64
2022-07-26T12:43:02.933Z,19.52
2022-07-26T12:45:32.031Z,19.55
2022-07-26T12:48:00.335Z,19.85
2022-07-26T12:50:28.827Z,20.35
2022-07-26T12:53:06.720Z,20.92
2022-07-26T12:55:34.417Z,20.80
2022-07-26T12:58:01.171Z,20.33
2022-07-26T13:00:29.820Z,20.17
2022-07-26T13:02:57.438Z,20.14
2022-07-26T13:05:24.363Z,20.12
2022-07-26T13:07:54.414Z,20.12
2022-07-26T13:10:36.675Z,19.97
2022-07-26T13:13:04.041Z,20.12
2022-07-26T13:15:37.292Z,20.12
2022-07-26T13:18:09.230Z,20.31
2022-07-26T13:20:37.314Z,20.50
2022-07-26T13:23:03.969Z,20.76
2022-07-26T13:25:39.621Z,20.91
2022-07-26T13:28:08.067Z,21.05
2022-07-26T13:30:37.293Z,21.02
2022-07-26T13:33:04.108Z,21.04
2022-07-26T13:35:30.621Z,20.86
2022-07-26T13:37:57.114Z,20.98
2022-07-26T13:40:27.565Z,21.31
2022-07-26T13:42:57.319Z,21.00
2022-07-26T13:45:23.839Z,20.85
2022-07-26T13:47:50.383Z,20.85
2022-07-26T13:50:16.962Z,20.89
2022-07-26T13:52:43.455Z,21.02
2022-07-26T13:55:10.048Z,21.07
2022-07-26T13:57:48.030Z,21.25
2022-07-26T14:00:23.129Z,21.22
2022-07-26T14:02:49.770Z,20.96
2022-07-26T14:05:16.408Z,20.92
2022-07-26T14:07:43.550Z,20.96
2022-07-26T14:10:11.514Z,20.75
2022-07-26T14:12:38.208Z,20.84
2022-07-26T14:15:11.939Z,20.82
2022-07-26T14:17:40.555Z,20.76
2022-07-26T14:20:08.063Z,20.78
2022-07-26T14:22:34.570Z,20.75
2022-07-26T14:25:01.064Z,20.80
2022-07-26T14:27:27.675Z,20.81
2022-07-26T14:29:54.144Z,20.70
2022-07-26T14:32:22.149Z,20.75
2022-07-26T14:34:49.750Z,20.59
2022-07-26T14:37:43.859Z,20.78
2022-07-26T14:40:05.481Z,20.90
2022-07-26T14:42:32.033Z,21.00
2022-07-26T14:44:58.633Z,21.17
2022-07-26T14:47:25.210Z,21.16
2022-07-26T14:49:51.734Z,20.92
2022-07-26T14:52:18.353Z,20.85
2022-07-26T14:54:44.902Z,20.97
2022-07-26T14:57:11.517Z,20.97
2022-07-26T14:59:38.011Z,21.00
2022-07-26T15:02:06.103Z,20.99
2022-07-26T15:04:32.890Z,20.80
2022-07-26T15:06:59.825Z,20.82
2022-07-26T15:09:26.387Z,20.74
2022-07-26T15:11:53.072Z,20.54
2022-07-26T15:14:19.674Z,20.47
2022-07-26T15:16:46.448Z,20.62
2022-07-26T15:19:13.017Z,20.64
2022-07-26T15:21:39.530Z,20.84
2022-07-26T15:24:06.277Z,20.89
2022-07-26T15:26:32.773Z,20.96
2022-07-26T15:28:59.295Z,20.72
2022-07-26T15:31:37.031Z,20.41
2022-07-26T15:34:07.552Z,20.56
2022-07-26T15:36:34.317Z,20.69
2022-07-26T15:39:14.631Z,20.86
2022-07-26T15:41:43.088Z,20.92
2022-07-26T15:44:10.911Z,20.87
2022-07-26T15:46:38.962Z,20.73
2022-07-26T15:49:07.195Z,20.67
2022-07-26T15:51:33.884Z,20.61
2022-07-26T15:54:00.567Z,20.42
2022-07-26T15:56:27.045Z,20.59
2022-07-26T15:58:53.594Z,20.74
2022-07-26T16:01:21.500Z,20.71
2022-07-26T16:03:48.180Z,20.52
2022-07-26T16:06:14.718Z,20.46
2022-07-26T16:08:58.894Z,20.37
2022-07-26T16:11:31.012Z,20.44
2022-07-26T16:14:01.421Z,20.49
2022-07-26T16:16:29.405Z,20.43
2022-07-26T16:18:56.288Z,20.38
2022-07-26T16:21:22.877Z,20.27
2022-07-26T16:23:50.872Z,20.18
2022-07-26T16:26:17.823Z,20.04
2022-07-26T16:28:44.449Z,20.09
2022-07-26T16:31:11.009Z,20.16
2022-07-26T16:33:37.854Z,20.20
2022-07-26T16:36:12.336Z,20.12
2022-07-26T16:38:38.832Z,20.01
2022-07-26T16:41:05.453Z,19.90
2022-07-26T16:43:32.127Z,19.92
2022-07-26T16:45:58.657Z,20.00
2022-07-26T16:48:25.156Z,19.95
2022-07-26T16:50:51.638Z,19.98
2022-07-26T16:53:18.332Z,20.05
2022-07-26T16:55:45.373Z,19.83
2022-07-26T16:58:11.943Z,19.80
2022-07-26T17:00:38.502Z,19.65
2022-07-26T17:03:05.173Z,19.58
2022-07-26T17:05:31.634Z,19.53
2022-07-26T17:07:58.222Z,19.47
2022-07-26T17:10:25.732Z,19.48
2022-07-26T17:12:52.322Z,19.61
2022-07-26T17:15:18.831Z,19.55
2022-07-26T17:17:48.634Z,19.55
2022-07-26T17:20:16.252Z,19.58
2022-07-26T17:22:42.823Z,19.37
2022-07-26T17:25:10.216Z,19.40
2022-07-26T17:27:36.721Z,19.29
2022-07-26T17:30:07.480Z,19.25
2022-07-26T17:32:34.850Z,19.22
2022-07-26T17:35:01.990Z,19.27
2022-07-26T17:37:28.550Z,19.38
2022-07-26T17:39:57.287Z,19.36
2022-07-26T17:42:24.221Z,19.45
2022-07-26T17:44:51.332Z,19.49
2022-07-26T17:47:29.488Z,19.49
2022-07-26T17:50:34.057Z,19.44
2022-07-26T17:52:49.972Z,19.38
2022-07-26T17:55:18.616Z,19.38
2022-07-26T17:57:45.903Z,19.29
2022-07-26T18:00:13.102Z,19.18
2022-07-26T18:02:39.655Z,19.04
2022-07-26T18:05:06.468Z,18.98
2022-07-26T18:07:32.982Z,18.94
2022-07-26T18:09:59.456Z,18.89
2022-07-26T18:12:25.923Z,18.93
2022-07-26T18:14:52.473Z,18.93
2022-07-26T18:17:19.066Z,18.97
2022-07-26T18:19:45.601Z,18.98
2022-07-26T18:22:12.072Z,18.97
2022-07-26T18:24:38.673Z,18.98
2022-07-26T18:27:05.319Z,19.10
2022-07-26T18:29:32.443Z,19.17
2022-07-26T18:32:01.415Z,19.18
2022-07-26T18:34:28.449Z,19.12
2022-07-26T18:36:55.038Z,19.05
2022-07-26T18:39:21.513Z,18.89
2022-07-26T18:41:48.285Z,18.92
2022-07-26T18:44:14.788Z,18.98
2022-07-26T18:46:41.423Z,18.98
2022-07-26T18:49:08.074Z,18.89
2022-07-26T18:51:34.724Z,18.73
2022-07-26T18:54:01.899Z,18.79
2022-07-26T18:56:28.652Z,18.78
2022-07-26T18:58:55.163Z,18.70
2022-07-26T19:01:21.702Z,18.70
2022-07-26T19:03:48.277Z,18.63
2022-07-26T19:06:14.863Z,18.60
2022-07-26T19:08:41.343Z,18.59
2022-07-26T19:11:07.915Z,18.56
2022-07-26T19:13:34.508Z,18.56
2022-07-26T19:16:01.112Z,18.51
2022-07-26T19:18:27.692Z,18.44
2022-07-26T19:20:54.208Z,18.32
2022-07-26T19:23:20.886Z,18.37
2022-07-26T19:25:47.361Z,18.30
2022-07-26T19:28:13.898Z,18.27
2022-07-26T19:30:40.474Z,18.22
2022-07-26T19:33:06.971Z,18.09
2022-07-26T19:35:33.487Z,18.07
2022-07-26T19:38:00.013Z,18.06
2022-07-26T19:40:26.609Z,17.95
2022-07-26T19:42:53.304Z,17.86
2022-07-26T19:45:19.921Z,17.80
2022-07-26T19:47:46.573Z,17.78
2022-07-26T19:50:13.253Z,17.79
2022-07-26T19:52:40.397Z,17.73
2022-07-26T19:55:08.418Z,17.63
2022-07-26T19:57:35.236Z,17.64
2022-07-26T20:00:04.978Z,17.60
2022-07-26T20:02:31.699Z,17.54
2022-07-26T20:04:59.059Z,17.58
2022-07-26T20:07:25.925Z,17.55
2022-07-26T20:09:52.801Z,17.50
2022-07-26T20:12:19.959Z,17.44
2022-07-26T20:14:47.183Z,17.39
2022-07-26T20:17:14.233Z,17.38
2022-07-26T20:19:41.050Z,17.36
2022-07-26T20:22:07.861Z,17.30
2022-07-26T20:24:34.427Z,17.34
2022-07-26T20:27:00.906Z,17.32
2022-07-26T20:29:27.397Z,17.30
2022-07-26T20:31:53.858Z,17.29
2022-07-26T20:34:20.443Z,17.28
2022-07-26T20:36:47.028Z,17.26
2022-07-26T20:39:14.274Z,17.23
2022-07-26T20:41:41.166Z,17.20
2022-07-26T20:44:07.872Z,17.19
2022-07-26T20:46:39.797Z,17.18
2022-07-26T20:49:07.957Z,17.15
2022-07-26T20:51:35.099Z,17.11
2022-07-26T20:54:01.926Z,16.98
2022-07-26T20:56:28.926Z,16.96
2022-07-26T20:58:55.548Z,17.02
2022-07-26T21:01:22.328Z,17.01
2022-07-26T21:03:49.049Z,16.96
2022-07-26T21:06:15.684Z,16.86
2022-07-26T21:08:42.157Z,16.78
2022-07-26T21:11:08.848Z,16.75
2022-07-26T21:13:36.387Z,16.76
2022-07-26T21:16:03.074Z,16.81
2022-07-26T21:18:29.952Z,16.74
2022-07-26T21:20:57.467Z,16.66
2022-07-26T21:23:24.051Z,16.58
2022-07-26T21:25:58.242Z,16.51
2022-07-26T21:28:27.358Z,16.39
2022-07-26T21:30:54.172Z,16.30
2022-07-26T21:33:20.714Z,16.29
2022-07-26T21:35:47.261Z,16.24
2022-07-26T21:38:13.738Z,16.24
2022-07-26T21:40:40.495Z,16.14
2022-07-26T21:43:07.066Z,16.04
2022-07-26T21:45:33.622Z,16.02
2022-07-26T21:48:00.262Z,15.93
2022-07-26T21:50:26.885Z,15.84
2022-07-26T21:52:53.516Z,15.78
2022-07-26T21:55:20.081Z,15.82
2022-07-26T21:57:48.907Z,15.83
2022-07-26T22:00:16.229Z,15.93
2022-07-26T22:02:42.784Z,15.87
2022-07-26T22:05:29.852Z,15.87
2022-07-26T22:07:56.558Z,15.91
2022-07-26T22:10:23.431Z,15.88
2022-07-26T22:12:49.971Z,15.86
2022-07-26T22:15:16.646Z,15.89
2022-07-26T22:17:43.101Z,15.92
2022-07-26T22:20:10.724Z,15.86
2022-07-26T22:22:38.387Z,15.90
2022-07-26T22:25:06.049Z,15.85
2022-07-26T22:27:32.570Z,15.79
2022-07-26T22:29:59.096Z,15.81
2022-07-26T22:32:26.835Z,15.77
2022-07-26T22:34:53.315Z,15.77
2022-07-26T22:37:19.819Z,15.75
2022-07-26T22:39:46.282Z,15.70
2022-07-26T22:42:15.828Z,15.75
2022-07-26T22:44:42.787Z,15.66
2022-07-26T22:47:09.310Z,15.69
2022-07-26T22:49:35.926Z,15.76
2022-07-26T22:52:02.548Z,15.70
2022-07-26T22:54:29.035Z,15.65
2022-07-26T22:56:55.530Z,15.63
2022-07-26T22:59:22.776Z,15.63
2022-07-26T23:01:49.301Z,15.55
2022-07-26T23:04:15.855Z,15.56
2022-07-26T23:06:43.233Z,15.46
2022-07-26T23:09:11.506Z,15.46
2022-07-26T23:11:38.704Z,15.40
2022-07-26T23:14:05.212Z,15.36
2022-07-26T23:16:31.982Z,15.31
2022-07-26T23:18:58.489Z,15.24
2022-07-26T23:21:25.015Z,15.27
2022-07-26T23:23:51.613Z,15.33
2022-07-26T23:26:18.088Z,15.32
2022-07-26T23:28:44.638Z,15.32
2022-07-26T23:31:12.432Z,15.29
2022-07-26T23:33:53.006Z,15.24
2022-07-26T23:36:26.171Z,15.21
2022-07-26T23:38:57.624Z,15.23
2022-07-26T23:41:25.257Z,15.23
2022-07-26T23:43:52.546Z,15.22
2022-07-26T23:46:19.123Z,15.20
2022-07-26T23:48:46.319Z,15.17
2022-07-26T23:51:12.937Z,15.06
2022-07-26T23:53:39.584Z,14.98
2022-07-26T23:56:06.227Z,14.95
2022-07-26T23:58:32.877Z,14.89
